sensor_id;sensor_type;location;lat;lon;timestamp;P1;durP1;ratioP1;P2;durP2;ratioP2
19113;SDS011;9689;51.052;13.772;2023-07-13T00:02:34;1.88;;;1.50;;
19113;SDS011;9689;51.052;13.772;2023-07-13T00:07:36;3.92;;;1.70;;
19113;SDS011;9689;51.052;13.772;2023-07-13T00:12:37;2.70;;;1.35;;
19113;SDS011;9689;51.052;13.772;2023-07-13T00:17:42;3.63;;;1.20;;
19113;SDS011;9689;51.052;13.772;2023-07-13T00:22:45;3.22;;;1.40;;
19113;SDS011;9689;51.052;13.772;2023-07-13T00:27:47;3.45;;;1.77;;
19113;SDS011;9689;51.052;13.772;2023-07-13T00:32:48;2.55;;;1.67;;
19113;SDS011;9689;51.052;13.772;2023-07-13T00:38:04;2.05;;;1.35;;
19113;SDS011;9689;51.052;13.772;2023-07-13T00:43:05;3.22;;;1.50;;
19113;SDS011;9689;51.052;13.772;2023-07-13T00:48:10;2.75;;;1.98;;
19113;SDS011;9689;51.052;13.772;2023-07-13T00:53:15;4.00;;;1.80;;
19113;SDS011;9689;51.052;13.772;2023-07-13T00:58:16;4.72;;;2.00;;
19113;SDS011;9689;51.052;13.772;2023-07-13T01:03:17;4.22;;;2.40;;
19113;SDS011;9689;51.052;13.772;2023-07-13T01:08:20;4.82;;;2.10;;
19113;SDS011;9689;51.052;13.772;2023-07-13T01:13:21;6.70;;;2.55;;
19113;SDS011;9689;51.052;13.772;2023-07-13T01:18:23;4.70;;;2.05;;
19113;SDS011;9689;51.052;13.772;2023-07-13T01:23:29;3.55;;;2.00;;
19113;SDS011;9689;51.052;13.772;2023-07-13T01:28:30;6.43;;;2.17;;
19113;SDS011;9689;51.052;13.772;2023-07-13T01:33:36;8.32;;;2.78;;
19113;SDS011;9689;51.052;13.772;2023-07-13T01:38:39;5.50;;;2.13;;
19113;SDS011;9689;51.052;13.772;2023-07-13T01:43:43;6.10;;;2.63;;
19113;SDS011;9689;51.052;13.772;2023-07-13T01:48:43;2.70;;;2.35;;
19113;SDS011;9689;51.052;13.772;2023-07-13T01:53:45;4.50;;;2.15;;
19113;SDS011;9689;51.052;13.772;2023-07-13T01:58:46;3.90;;;2.60;;
19113;SDS011;9689;51.052;13.772;2023-07-13T02:03:47;4.13;;;2.33;;
19113;SDS011;9689;51.052;13.772;2023-07-13T02:08:49;4.75;;;2.60;;
19113;SDS011;9689;51.052;13.772;2023-07-13T02:13:50;6.88;;;2.60;;
19113;SDS011;9689;51.052;13.772;2023-07-13T02:18:51;3.97;;;2.58;;
19113;SDS011;9689;51.052;13.772;2023-07-13T02:23:53;5.28;;;2.45;;
19113;SDS011;9689;51.052;13.772;2023-07-13T02:28:54;6.65;;;2.67;;
19113;SDS011;9689;51.052;13.772;2023-07-13T02:33:54;4.07;;;2.20;;
19113;SDS011;9689;51.052;13.772;2023-07-13T02:38:57;9.18;;;2.65;;
19113;SDS011;9689;51.052;13.772;2023-07-13T02:43:58;7.45;;;2.55;;
19113;SDS011;9689;51.052;13.772;2023-07-13T02:49:03;5.25;;;2.45;;
19113;SDS011;9689;51.052;13.772;2023-07-13T02:54:05;7.88;;;3.15;;
19113;SDS011;9689;51.052;13.772;2023-07-13T02:59:07;4.40;;;2.40;;
19113;SDS011;9689;51.052;13.772;2023-07-13T03:04:08;8.82;;;2.75;;
19113;SDS011;9689;51.052;13.772;2023-07-13T03:09:11;5.57;;;2.80;;
19113;SDS011;9689;51.052;13.772;2023-07-13T03:14:15;6.38;;;2.95;;
19113;SDS011;9689;51.052;13.772;2023-07-13T03:19:16;9.00;;;3.00;;
19113;SDS011;9689;51.052;13.772;2023-07-13T03:24:23;8.85;;;3.10;;
19113;SDS011;9689;51.052;13.772;2023-07-13T03:29:26;7.70;;;2.78;;
19113;SDS011;9689;51.052;13.772;2023-07-13T03:34:27;4.90;;;2.53;;
19113;SDS011;9689;51.052;13.772;2023-07-13T03:39:29;5.90;;;2.60;;
19113;SDS011;9689;51.052;13.772;2023-07-13T03:44:31;9.20;;;3.05;;
19113;SDS011;9689;51.052;13.772;2023-07-13T03:49:31;8.43;;;3.50;;
19113;SDS011;9689;51.052;13.772;2023-07-13T03:54:33;5.45;;;2.60;;
19113;SDS011;9689;51.052;13.772;2023-07-13T03:59:34;5.88;;;2.88;;
19113;SDS011;9689;51.052;13.772;2023-07-13T04:04:35;6.63;;;2.67;;
19113;SDS011;9689;51.052;13.772;2023-07-13T04:09:41;5.53;;;2.50;;
19113;SDS011;9689;51.052;13.772;2023-07-13T04:14:42;7.32;;;3.30;;
19113;SDS011;9689;51.052;13.772;2023-07-13T04:19:43;5.72;;;2.97;;
19113;SDS011;9689;51.052;13.772;2023-07-13T04:24:45;4.45;;;2.50;;
19113;SDS011;9689;51.052;13.772;2023-07-13T04:29:45;9.63;;;3.03;;
19113;SDS011;9689;51.052;13.772;2023-07-13T04:34:46;5.05;;;2.83;;
19113;SDS011;9689;51.052;13.772;2023-07-13T04:39:53;5.93;;;2.45;;
19113;SDS011;9689;51.052;13.772;2023-07-13T04:44:54;6.10;;;2.47;;
19113;SDS011;9689;51.052;13.772;2023-07-13T04:49:55;4.10;;;2.22;;
19113;SDS011;9689;51.052;13.772;2023-07-13T04:54:58;5.85;;;2.53;;
19113;SDS011;9689;51.052;13.772;2023-07-13T04:59:59;5.32;;;2.83;;
19113;SDS011;9689;51.052;13.772;2023-07-13T05:05:00;8.02;;;2.75;;
19113;SDS011;9689;51.052;13.772;2023-07-13T05:10:05;5.43;;;2.80;;
19113;SDS011;9689;51.052;13.772;2023-07-13T05:15:06;5.18;;;2.38;;
19113;SDS011;9689;51.052;13.772;2023-07-13T05:20:08;6.88;;;2.33;;
19113;SDS011;9689;51.052;13.772;2023-07-13T05:25:11;4.63;;;2.08;;
19113;SDS011;9689;51.052;13.772;2023-07-13T05:30:11;4.97;;;2.33;;
19113;SDS011;9689;51.052;13.772;2023-07-13T05:35:12;5.50;;;2.47;;
19113;SDS011;9689;51.052;13.772;2023-07-13T05:40:15;8.23;;;2.78;;
19113;SDS011;9689;51.052;13.772;2023-07-13T05:45:15;9.38;;;2.80;;
19113;SDS011;9689;51.052;13.772;2023-07-13T05:50:16;7.93;;;2.83;;
19113;SDS011;9689;51.052;13.772;2023-07-13T05:55:18;5.95;;;2.90;;
19113;SDS011;9689;51.052;13.772;2023-07-13T06:00:19;9.38;;;3.28;;
19113;SDS011;9689;51.052;13.772;2023-07-13T06:05:20;5.47;;;2.80;;
19113;SDS011;9689;51.052;13.772;2023-07-13T06:10:22;5.70;;;2.97;;
19113;SDS011;9689;51.052;13.772;2023-07-13T06:15:23;7.07;;;2.72;;
19113;SDS011;9689;51.052;13.772;2023-07-13T06:20:23;5.93;;;1.60;;
19113;SDS011;9689;51.052;13.772;2023-07-13T06:25:26;10.40;;;2.42;;
19113;SDS011;9689;51.052;13.772;2023-07-13T06:30:27;7.47;;;2.13;;
19113;SDS011;9689;51.052;13.772;2023-07-13T06:35:28;3.08;;;1.80;;
19113;SDS011;9689;51.052;13.772;2023-07-13T06:40:30;9.23;;;2.35;;
19113;SDS011;9689;51.052;13.772;2023-07-13T06:45:32;11.05;;;2.10;;
19113;SDS011;9689;51.052;13.772;2023-07-13T06:50:36;4.95;;;2.13;;
19113;SDS011;9689;51.052;13.772;2023-07-13T06:55:38;6.82;;;2.03;;
19113;SDS011;9689;51.052;13.772;2023-07-13T07:00:39;9.23;;;2.05;;
19113;SDS011;9689;51.052;13.772;2023-07-13T07:05:41;4.15;;;1.80;;
19113;SDS011;9689;51.052;13.772;2023-07-13T07:10:43;6.15;;;1.80;;
19113;SDS011;9689;51.052;13.772;2023-07-13T07:15:44;2.55;;;1.55;;
19113;SDS011;9689;51.052;13.772;2023-07-13T07:20:45;4.88;;;1.80;;
19113;SDS011;9689;51.052;13.772;2023-07-13T07:25:47;4.85;;;2.05;;
19113;SDS011;9689;51.052;13.772;2023-07-13T07:30:48;5.10;;;1.85;;
19113;SDS011;9689;51.052;13.772;2023-07-13T07:36:12;4.28;;;2.17;;
19113;SDS011;9689;51.052;13.772;2023-07-13T07:41:18;10.95;;;2.17;;
19113;SDS011;9689;51.052;13.772;2023-07-13T07:46:22;7.93;;;2.50;;
19113;SDS011;9689;51.052;13.772;2023-07-13T07:51:24;5.85;;;2.10;;
19113;SDS011;9689;51.052;13.772;2023-07-13T07:56:26;4.47;;;1.80;;
19113;SDS011;9689;51.052;13.772;2023-07-13T08:01:30;4.35;;;1.95;;
19113;SDS011;9689;51.052;13.772;2023-07-13T08:06:34;5.65;;;2.03;;
19113;SDS011;9689;51.052;13.772;2023-07-13T08:11:39;5.18;;;1.92;;
19113;SDS011;9689;51.052;13.772;2023-07-13T08:16:42;7.00;;;1.40;;
19113;SDS011;9689;51.052;13.772;2023-07-13T08:21:43;6.70;;;1.48;;
19113;SDS011;9689;51.052;13.772;2023-07-13T08:26:45;3.10;;;1.27;;
19113;SDS011;9689;51.052;13.772;2023-07-13T08:31:46;6.38;;;1.85;;
19113;SDS011;9689;51.052;13.772;2023-07-13T08:36:47;5.30;;;1.50;;
19113;SDS011;9689;51.052;13.772;2023-07-13T08:41:50;5.28;;;1.50;;
19113;SDS011;9689;51.052;13.772;2023-07-13T08:46:57;5.30;;;1.65;;
19113;SDS011;9689;51.052;13.772;2023-07-13T08:52:00;5.88;;;1.40;;
19113;SDS011;9689;51.052;13.772;2023-07-13T08:57:11;5.75;;;2.00;;
19113;SDS011;9689;51.052;13.772;2023-07-13T09:02:16;3.75;;;1.80;;
19113;SDS011;9689;51.052;13.772;2023-07-13T09:07:37;4.82;;;1.20;;
19113;SDS011;9689;51.052;13.772;2023-07-13T09:12:49;2.30;;;1.20;;
19113;SDS011;9689;51.052;13.772;2023-07-13T09:18:07;3.80;;;1.20;;
19113;SDS011;9689;51.052;13.772;2023-07-13T09:23:12;6.80;;;1.52;;
19113;SDS011;9689;51.052;13.772;2023-07-13T09:28:19;6.57;;;1.60;;
19113;SDS011;9689;51.052;13.772;2023-07-13T09:33:22;3.28;;;1.33;;
19113;SDS011;9689;51.052;13.772;2023-07-13T09:38:24;4.80;;;1.30;;
19113;SDS011;9689;51.052;13.772;2023-07-13T09:43:30;5.28;;;1.45;;
19113;SDS011;9689;51.052;13.772;2023-07-13T09:48:33;3.67;;;1.27;;
19113;SDS011;9689;51.052;13.772;2023-07-13T09:53:36;3.95;;;1.17;;
19113;SDS011;9689;51.052;13.772;2023-07-13T09:58:38;3.58;;;1.73;;
19113;SDS011;9689;51.052;13.772;2023-07-13T10:03:39;3.22;;;1.27;;
19113;SDS011;9689;51.052;13.772;2023-07-13T10:08:55;4.43;;;1.83;;
19113;SDS011;9689;51.052;13.772;2023-07-13T10:14:10;3.13;;;1.35;;
19113;SDS011;9689;51.052;13.772;2023-07-13T10:19:16;5.03;;;1.70;;
19113;SDS011;9689;51.052;13.772;2023-07-13T10:24:23;5.20;;;1.58;;
19113;SDS011;9689;51.052;13.772;2023-07-13T10:29:27;7.40;;;1.88;;
19113;SDS011;9689;51.052;13.772;2023-07-13T10:34:30;4.45;;;1.10;;
19113;SDS011;9689;51.052;13.772;2023-07-13T10:39:32;3.53;;;1.17;;
19113;SDS011;9689;51.052;13.772;2023-07-13T10:44:35;4.55;;;1.90;;
19113;SDS011;9689;51.052;13.772;2023-07-13T10:49:39;3.92;;;1.60;;
19113;SDS011;9689;51.052;13.772;2023-07-13T10:54:42;4.18;;;1.23;;
19113;SDS011;9689;51.052;13.772;2023-07-13T10:59:44;4.07;;;1.20;;
19113;SDS011;9689;51.052;13.772;2023-07-13T11:04:48;2.15;;;1.13;;
19113;SDS011;9689;51.052;13.772;2023-07-13T11:09:49;6.10;;;1.20;;
19113;SDS011;9689;51.052;13.772;2023-07-13T11:15:05;5.60;;;0.88;;
19113;SDS011;9689;51.052;13.772;2023-07-13T11:20:24;2.45;;;1.20;;
19113;SDS011;9689;51.052;13.772;2023-07-13T11:25:34;9.13;;;1.25;;
19113;SDS011;9689;51.052;13.772;2023-07-13T11:30:39;5.28;;;1.30;;
19113;SDS011;9689;51.052;13.772;2023-07-13T11:35:48;5.18;;;1.40;;
19113;SDS011;9689;51.052;13.772;2023-07-13T11:40:54;5.88;;;1.17;;
19113;SDS011;9689;51.052;13.772;2023-07-13T11:45:57;6.60;;;1.98;;
19113;SDS011;9689;51.052;13.772;2023-07-13T11:50:58;3.97;;;1.50;;
19113;SDS011;9689;51.052;13.772;2023-07-13T11:56:04;4.47;;;1.20;;
19113;SDS011;9689;51.052;13.772;2023-07-13T12:01:10;9.85;;;2.13;;
19113;SDS011;9689;51.052;13.772;2023-07-13T12:06:24;4.85;;;1.00;;
19113;SDS011;9689;51.052;13.772;2023-07-13T12:11:28;7.80;;;1.52;;
19113;SDS011;9689;51.052;13.772;2023-07-13T12:16:32;5.47;;;1.40;;
19113;SDS011;9689;51.052;13.772;2023-07-13T12:21:38;4.03;;;1.35;;
19113;SDS011;9689;51.052;13.772;2023-07-13T12:26:39;4.20;;;1.25;;
19113;SDS011;9689;51.052;13.772;2023-07-13T12:31:42;7.15;;;1.38;;
19113;SDS011;9689;51.052;13.772;2023-07-13T12:36:49;4.25;;;1.40;;
19113;SDS011;9689;51.052;13.772;2023-07-13T12:41:51;7.05;;;1.63;;
19113;SDS011;9689;51.052;13.772;2023-07-13T12:46:55;4.90;;;1.10;;
19113;SDS011;9689;51.052;13.772;2023-07-13T12:52:00;3.63;;;1.00;;
19113;SDS011;9689;51.052;13.772;2023-07-13T12:57:02;3.58;;;1.38;;
19113;SDS011;9689;51.052;13.772;2023-07-13T13:02:15;7.70;;;1.42;;
19113;SDS011;9689;51.052;13.772;2023-07-13T13:07:27;6.53;;;1.60;;
19113;SDS011;9689;51.052;13.772;2023-07-13T13:12:28;10.68;;;1.88;;
19113;SDS011;9689;51.052;13.772;2023-07-13T13:17:33;3.20;;;0.95;;
19113;SDS011;9689;51.052;13.772;2023-07-13T13:22:33;5.00;;;1.40;;
19113;SDS011;9689;51.052;13.772;2023-07-13T13:27:34;6.97;;;1.40;;
19113;SDS011;9689;51.052;13.772;2023-07-13T13:32:37;7.30;;;2.08;;
19113;SDS011;9689;51.052;13.772;2023-07-13T13:37:38;3.90;;;1.08;;
19113;SDS011;9689;51.052;13.772;2023-07-13T13:42:40;3.45;;;1.30;;
19113;SDS011;9689;51.052;13.772;2023-07-13T13:47:42;2.17;;;1.00;;
19113;SDS011;9689;51.052;13.772;2023-07-13T13:52:44;3.13;;;1.10;;
19113;SDS011;9689;51.052;13.772;2023-07-13T13:57:47;2.83;;;1.20;;
19113;SDS011;9689;51.052;13.772;2023-07-13T14:02:50;2.92;;;1.02;;
19113;SDS011;9689;51.052;13.772;2023-07-13T14:07:52;9.10;;;1.70;;
19113;SDS011;9689;51.052;13.772;2023-07-13T14:12:55;4.65;;;1.27;;
19113;SDS011;9689;51.052;13.772;2023-07-13T14:17:59;7.88;;;1.40;;
19113;SDS011;9689;51.052;13.772;2023-07-13T14:22:59;6.85;;;1.38;;
19113;SDS011;9689;51.052;13.772;2023-07-13T14:28:04;4.35;;;2.00;;
19113;SDS011;9689;51.052;13.772;2023-07-13T14:33:19;3.92;;;1.63;;
19113;SDS011;9689;51.052;13.772;2023-07-13T14:38:20;2.28;;;1.27;;
19113;SDS011;9689;51.052;13.772;2023-07-13T14:43:21;2.30;;;1.00;;
19113;SDS011;9689;51.052;13.772;2023-07-13T14:48:25;7.35;;;1.67;;
19113;SDS011;9689;51.052;13.772;2023-07-13T14:53:26;3.78;;;1.10;;
19113;SDS011;9689;51.052;13.772;2023-07-13T14:58:28;5.60;;;1.20;;
19113;SDS011;9689;51.052;13.772;2023-07-13T15:03:33;3.42;;;1.27;;
19113;SDS011;9689;51.052;13.772;2023-07-13T15:08:37;5.35;;;1.17;;
19113;SDS011;9689;51.052;13.772;2023-07-13T15:13:40;4.00;;;1.15;;
19113;SDS011;9689;51.052;13.772;2023-07-13T15:18:45;4.78;;;1.30;;
19113;SDS011;9689;51.052;13.772;2023-07-13T15:23:46;3.80;;;0.93;;
19113;SDS011;9689;51.052;13.772;2023-07-13T15:28:47;3.10;;;1.00;;
19113;SDS011;9689;51.052;13.772;2023-07-13T15:33:49;7.35;;;1.20;;
19113;SDS011;9689;51.052;13.772;2023-07-13T15:38:52;3.80;;;1.13;;
19113;SDS011;9689;51.052;13.772;2023-07-13T15:43:54;1.65;;;0.90;;
19113;SDS011;9689;51.052;13.772;2023-07-13T15:48:58;1.77;;;0.90;;
19113;SDS011;9689;51.052;13.772;2023-07-13T15:54:01;1.60;;;0.75;;
19113;SDS011;9689;51.052;13.772;2023-07-13T15:59:04;4.18;;;0.73;;
19113;SDS011;9689;51.052;13.772;2023-07-13T16:04:07;4.72;;;0.73;;
19113;SDS011;9689;51.052;13.772;2023-07-13T16:09:09;3.70;;;1.02;;
19113;SDS011;9689;51.052;13.772;2023-07-13T16:14:16;3.00;;;1.17;;
19113;SDS011;9689;51.052;13.772;2023-07-13T16:19:18;1.30;;;0.98;;
19113;SDS011;9689;51.052;13.772;2023-07-13T16:24:27;4.63;;;0.82;;
19113;SDS011;9689;51.052;13.772;2023-07-13T16:29:30;0.80;;;0.68;;
19113;SDS011;9689;51.052;13.772;2023-07-13T16:34:33;2.83;;;0.73;;
19113;SDS011;9689;51.052;13.772;2023-07-13T16:39:35;2.33;;;1.00;;
19113;SDS011;9689;51.052;13.772;2023-07-13T16:44:36;7.05;;;1.27;;
19113;SDS011;9689;51.052;13.772;2023-07-13T16:49:39;4.25;;;2.20;;
19113;SDS011;9689;51.052;13.772;2023-07-13T16:54:40;4.35;;;1.30;;
19113;SDS011;9689;51.052;13.772;2023-07-13T16:59:41;9.25;;;1.77;;
19113;SDS011;9689;51.052;13.772;2023-07-13T17:04:46;5.68;;;1.70;;
19113;SDS011;9689;51.052;13.772;2023-07-13T17:09:47;4.43;;;1.58;;
19113;SDS011;9689;51.052;13.772;2023-07-13T17:14:48;2.85;;;1.98;;
19113;SDS011;9689;51.052;13.772;2023-07-13T17:19:51;6.25;;;1.77;;
19113;SDS011;9689;51.052;13.772;2023-07-13T17:24:52;2.97;;;1.30;;
19113;SDS011;9689;51.052;13.772;2023-07-13T17:29:53;3.60;;;1.75;;
19113;SDS011;9689;51.052;13.772;2023-07-13T17:34:55;3.85;;;1.40;;
19113;SDS011;9689;51.052;13.772;2023-07-13T17:39:56;1.35;;;1.10;;
19113;SDS011;9689;51.052;13.772;2023-07-13T17:44:57;3.33;;;1.48;;
19113;SDS011;9689;51.052;13.772;2023-07-13T17:50:00;4.53;;;1.77;;
19113;SDS011;9689;51.052;13.772;2023-07-13T17:55:04;3.08;;;1.40;;
19113;SDS011;9689;51.052;13.772;2023-07-13T18:00:13;6.07;;;1.00;;
19113;SDS011;9689;51.052;13.772;2023-07-13T18:05:28;1.33;;;1.00;;
19113;SDS011;9689;51.052;13.772;2023-07-13T18:10:30;1.17;;;0.82;;
19113;SDS011;9689;51.052;13.772;2023-07-13T18:15:32;3.90;;;1.17;;
19113;SDS011;9689;51.052;13.772;2023-07-13T18:20:34;3.58;;;1.17;;
19113;SDS011;9689;51.052;13.772;2023-07-13T18:25:36;2.05;;;1.00;;
19113;SDS011;9689;51.052;13.772;2023-07-13T18:30:37;4.50;;;1.30;;
19113;SDS011;9689;51.052;13.772;2023-07-13T18:35:40;2.50;;;1.00;;
19113;SDS011;9689;51.052;13.772;2023-07-13T18:40:40;3.08;;;1.13;;
19113;SDS011;9689;51.052;13.772;2023-07-13T18:45:41;3.00;;;1.10;;
19113;SDS011;9689;51.052;13.772;2023-07-13T18:50:43;1.98;;;0.82;;
19113;SDS011;9689;51.052;13.772;2023-07-13T18:55:44;3.92;;;1.17;;
19113;SDS011;9689;51.052;13.772;2023-07-13T19:00:47;8.90;;;1.20;;
19113;SDS011;9689;51.052;13.772;2023-07-13T19:05:51;3.38;;;1.20;;
19113;SDS011;9689;51.052;13.772;2023-07-13T19:10:59;3.88;;;1.40;;
19113;SDS011;9689;51.052;13.772;2023-07-13T19:16:00;2.00;;;0.80;;
19113;SDS011;9689;51.052;13.772;2023-07-13T19:21:04;4.18;;;1.10;;
19113;SDS011;9689;51.052;13.772;2023-07-13T19:26:14;4.03;;;1.38;;
19113;SDS011;9689;51.052;13.772;2023-07-13T19:31:22;3.50;;;1.10;;
19113;SDS011;9689;51.052;13.772;2023-07-13T19:36:26;2.38;;;1.30;;
19113;SDS011;9689;51.052;13.772;2023-07-13T19:41:27;5.07;;;1.95;;
19113;SDS011;9689;51.052;13.772;2023-07-13T19:46:31;2.63;;;1.50;;
19113;SDS011;9689;51.052;13.772;2023-07-13T19:51:35;3.13;;;1.48;;
19113;SDS011;9689;51.052;13.772;2023-07-13T19:56:36;3.10;;;1.48;;
19113;SDS011;9689;51.052;13.772;2023-07-13T20:01:37;3.55;;;1.70;;
19113;SDS011;9689;51.052;13.772;2023-07-13T20:06:39;6.97;;;2.40;;
19113;SDS011;9689;51.052;13.772;2023-07-13T20:11:40;4.82;;;1.60;;
19113;SDS011;9689;51.052;13.772;2023-07-13T20:16:41;6.10;;;1.73;;
19113;SDS011;9689;51.052;13.772;2023-07-13T20:21:43;4.30;;;1.20;;
19113;SDS011;9689;51.052;13.772;2023-07-13T20:26:45;10.95;;;1.60;;
19113;SDS011;9689;51.052;13.772;2023-07-13T20:31:47;2.25;;;1.30;;
19113;SDS011;9689;51.052;13.772;2023-07-13T20:36:50;7.53;;;1.33;;
19113;SDS011;9689;51.052;13.772;2023-07-13T20:41:53;6.78;;;1.73;;
19113;SDS011;9689;51.052;13.772;2023-07-13T20:46:54;4.20;;;1.80;;
19113;SDS011;9689;51.052;13.772;2023-07-13T20:51:57;5.07;;;1.40;;
19113;SDS011;9689;51.052;13.772;2023-07-13T20:56:57;4.25;;;1.80;;
19113;SDS011;9689;51.052;13.772;2023-07-13T21:01:58;7.25;;;1.90;;
19113;SDS011;9689;51.052;13.772;2023-07-13T21:07:01;4.07;;;1.25;;
19113;SDS011;9689;51.052;13.772;2023-07-13T21:12:01;6.40;;;1.50;;
19113;SDS011;9689;51.052;13.772;2023-07-13T21:17:03;2.92;;;1.38;;
19113;SDS011;9689;51.052;13.772;2023-07-13T21:22:08;2.78;;;1.52;;
19113;SDS011;9689;51.052;13.772;2023-07-13T21:27:14;4.90;;;1.92;;
19113;SDS011;9689;51.052;13.772;2023-07-13T21:32:15;2.65;;;1.50;;
19113;SDS011;9689;51.052;13.772;2023-07-13T21:37:24;4.65;;;1.70;;
19113;SDS011;9689;51.052;13.772;2023-07-13T21:42:26;2.88;;;1.40;;
19113;SDS011;9689;51.052;13.772;2023-07-13T21:47:27;7.30;;;1.83;;
19113;SDS011;9689;51.052;13.772;2023-07-13T21:52:29;10.27;;;4.10;;
19113;SDS011;9689;51.052;13.772;2023-07-13T21:57:30;3.97;;;1.40;;
19113;SDS011;9689;51.052;13.772;2023-07-13T22:02:30;6.32;;;1.30;;
19113;SDS011;9689;51.052;13.772;2023-07-13T22:07:33;6.60;;;1.38;;
19113;SDS011;9689;51.052;13.772;2023-07-13T22:12:35;5.85;;;1.50;;
19113;SDS011;9689;51.052;13.772;2023-07-13T22:17:35;6.28;;;2.25;;
19113;SDS011;9689;51.052;13.772;2023-07-13T22:22:38;8.82;;;2.05;;
19113;SDS011;9689;51.052;13.772;2023-07-13T22:27:38;7.85;;;1.70;;
19113;SDS011;9689;51.052;13.772;2023-07-13T22:32:40;7.43;;;1.65;;
19113;SDS011;9689;51.052;13.772;2023-07-13T22:37:42;3.60;;;1.92;;
19113;SDS011;9689;51.052;13.772;2023-07-13T22:42:43;7.35;;;1.58;;
19113;SDS011;9689;51.052;13.772;2023-07-13T22:47:44;4.03;;;1.40;;
19113;SDS011;9689;51.052;13.772;2023-07-13T22:52:50;4.15;;;1.88;;
19113;SDS011;9689;51.052;13.772;2023-07-13T22:57:51;7.43;;;1.92;;
19113;SDS011;9689;51.052;13.772;2023-07-13T23:02:51;5.40;;;2.08;;
19113;SDS011;9689;51.052;13.772;2023-07-13T23:07:54;4.70;;;1.80;;
19113;SDS011;9689;51.052;13.772;2023-07-13T23:12:54;2.92;;;1.35;;
19113;SDS011;9689;51.052;13.772;2023-07-13T23:18:01;4.47;;;1.45;;
19113;SDS011;9689;51.052;13.772;2023-07-13T23:23:04;5.68;;;1.80;;
19113;SDS011;9689;51.052;13.772;2023-07-13T23:28:05;7.13;;;1.77;;
19113;SDS011;9689;51.052;13.772;2023-07-13T23:33:09;8.65;;;1.90;;
19113;SDS011;9689;51.052;13.772;2023-07-13T23:38:20;3.33;;;1.38;;
19113;SDS011;9689;51.052;13.772;2023-07-13T23:43:21;8.50;;;2.42;;
19113;SDS011;9689;51.052;13.772;2023-07-13T23:48:21;5.15;;;1.60;;
19113;SDS011;9689;51.052;13.772;2023-07-13T23:53:23;6.22;;;1.92;;
19113;SDS011;9689;51.052;13.772;2023-07-13T23:58:24;3.28;;;1.60;;
